Time;durP1;ratioP1;P1;durP2;ratioP2;P2;SDS_P1;SDS_P2;PMS_P1;PMS_P2;Temp;Humidity;BMP_temperature;BMP_pressure;BME280_temperature;BME280_humidity;BME280_pressure;Samples;Min_cycle;Max_cycle;Signal;HPM_P1;HPM_P2
2021/03/18 00:02:11;;;;;;;10.63;2.33;;;;;4.60;102289.00;;;;10398465;28;20261;-75
2021/03/18 00:07:13;;;;;;;8.63;2.63;;;;;4.50;102290.00;;;;10381786;28;20241;-76
2021/03/18 00:12:14;;;;;;;6.17;2.40;;;;;4.50;102286.00;;;;10349121;28;20194;-76
2021/03/18 00:17:15;;;;;;;6.13;1.93;;;;;4.40;102270.00;;;;10382303;28;20252;-76
2021/03/18 00:22:18;;;;;;;5.57;2.13;;;;;4.30;102277.00;;;;10398127;28;20206;-75
2021/03/18 00:27:19;;;;;;;9.00;2.60;;;;;4.20;102260.00;;;;10364861;28;20681;-75
2021/03/18 00:32:21;;;;;;;7.30;2.17;;;;;4.10;102250.00;;;;10348736;28;20837;-76
2021/03/18 00:37:22;;;;;;;9.63;3.17;;;;;4.00;102242.00;;;;10397233;28;20278;-76
2021/03/18 00:42:24;;;;;;;8.93;2.87;;;;;3.90;102255.00;;;;10396773;28;20743;-75
2021/03/18 00:47:25;;;;;;;9.93;3.40;;;;;3.90;102250.00;;;;10414823;28;20194;-75
2021/03/18 00:52:27;;;;;;;7.17;3.53;;;;;3.80;102253.00;;;;10407846;28;20641;-75
2021/03/18 00:57:28;;;;;;;9.63;3.57;;;;;3.70;102267.00;;;;10405032;28;20600;-75
2021/03/18 01:02:30;;;;;;;7.47;3.77;;;;;3.70;102255.00;;;;10404366;28;20226;-75
2021/03/18 01:07:32;;;;;;;7.30;3.73;;;;;3.60;102253.00;;;;10404331;28;20556;-75
2021/03/18 01:12:34;;;;;;;4.83;3.03;;;;;3.50;102254.00;;;;10417394;28;20209;-75
2021/03/18 01:17:35;;;;;;;6.77;3.97;;;;;3.40;102258.00;;;;10354905;28;20234;-75
2021/03/18 01:22:37;;;;;;;5.27;2.57;;;;;3.30;102242.00;;;;10338965;28;20230;-75
2021/03/18 01:27:39;;;;;;;7.80;3.23;;;;;3.20;102243.00;;;;10354868;28;20204;-75
2021/03/18 01:32:41;;;;;;;10.43;2.80;;;;;3.10;102251.00;;;;10354459;28;20230;-75
2021/03/18 01:37:44;;;;;;;10.67;3.10;;;;;3.00;102260.00;;;;10354888;28;20203;-75
2021/03/18 01:42:45;;;;;;;7.83;2.93;;;;;2.90;102260.00;;;;10359240;28;20337;-75
2021/03/18 01:47:49;;;;;;;12.30;2.90;;;;;2.90;102252.00;;;;10395291;28;20202;-75
2021/03/18 01:52:53;;;;;;;7.67;2.90;;;;;2.80;102252.00;;;;10395773;28;20218;-75
2021/03/18 01:57:56;;;;;;;6.00;2.87;;;;;2.70;102261.00;;;;10362895;28;20195;-75
2021/03/18 02:02:58;;;;;;;12.30;2.50;;;;;2.60;102263.00;;;;10395210;28;20670;-75
2021/03/18 02:08:03;;;;;;;12.97;2.70;;;;;2.50;102277.00;;;;10346564;28;20227;-75
2021/03/18 02:13:06;;;;;;;9.17;3.03;;;;;2.50;102269.00;;;;10394414;28;20215;-75
2021/03/18 02:18:08;;;;;;;8.63;2.70;;;;;2.50;102267.00;;;;10378427;28;20230;-75
2021/03/18 02:23:35;;;;;;;6.07;2.83;;;;;2.40;102261.00;;;;10395134;28;20238;-75
2021/03/18 02:28:58;;;;;;;4.63;2.30;;;;;2.30;102252.00;;;;10378409;28;20210;-75
2021/03/18 02:34:28;;;;;;;7.37;2.90;;;;;2.30;102244.00;;;;10368572;28;20179;-75
2021/03/18 02:39:41;;;;;;;10.93;3.20;;;;;2.20;102231.00;;;;10366281;28;20230;-75
2021/03/18 02:44:44;;;;;;;9.37;3.00;;;;;2.20;102228.00;;;;10385606;28;20225;-75
2021/03/18 02:49:46;;;;;;;5.40;2.23;;;;;2.20;102223.00;;;;10352686;28;20641;-75
2021/03/18 02:54:52;;;;;;;9.80;2.53;;;;;2.20;102219.00;;;;10401558;28;20553;-75
2021/03/18 02:59:57;;;;;;;9.57;2.03;;;;;2.10;102207.00;;;;10352409;28;20195;-75
2021/03/18 03:04:59;;;;;;;11.03;2.80;;;;;2.10;102211.00;;;;10384359;28;20215;-75
2021/03/18 03:10:06;;;;;;;9.80;3.20;;;;;2.10;102224.00;;;;10369072;28;20199;-75
2021/03/18 03:15:09;;;;;;;10.10;2.27;;;;;2.20;102217.00;;;;10400893;28;20215;-75
2021/03/18 03:20:12;;;;;;;13.20;3.13;;;;;2.20;102202.00;;;;10383945;28;20195;-75
2021/03/18 03:25:16;;;;;;;10.97;2.83;;;;;2.20;102194.00;;;;10400166;28;20294;-75
2021/03/18 03:30:18;;;;;;;10.73;2.63;;;;;2.20;102191.00;;;;10383065;28;20199;-75
2021/03/18 03:35:20;;;;;;;10.20;2.80;;;;;2.30;102189.00;;;;10382710;28;20195;-75
2021/03/18 03:40:22;;;;;;;11.23;2.80;;;;;2.40;102184.00;;;;10399424;28;20202;-75
2021/03/18 03:45:24;;;;;;;7.50;2.50;;;;;2.50;102191.00;;;;10358321;28;20544;-75
2021/03/18 03:50:27;;;;;;;7.73;2.67;;;;;2.60;102191.00;;;;10358729;28;21000;-75
2021/03/18 03:55:47;;;;;;;10.70;2.90;;;;;2.70;102191.00;;;;10341871;28;20195;-75
2021/03/18 04:00:49;;;;;;;5.47;2.53;;;;;2.70;102169.00;;;;10357396;28;20206;-75
2021/03/18 04:05:55;;;;;;;17.23;3.63;;;;;2.70;102176.00;;;;10378187;28;20242;-75
2021/03/18 04:10:59;;;;;;;10.10;2.60;;;;;2.70;102179.00;;;;10398819;28;20253;-75
2021/03/18 04:16:03;;;;;;;10.67;3.30;;;;;2.70;102172.00;;;;10365937;28;20257;-75
2021/03/18 04:21:07;;;;;;;9.30;2.80;;;;;2.70;102186.00;;;;10382839;28;20581;-75
2021/03/18 04:26:09;;;;;;;8.00;3.13;;;;;2.80;102197.00;;;;10381889;28;20207;-75
2021/03/18 04:31:11;;;;;;;11.63;3.03;;;;;2.90;102194.00;;;;10414780;28;20293;-75
2021/03/18 04:36:14;;;;;;;8.23;2.57;;;;;2.90;102198.00;;;;10381222;28;20191;-75
2021/03/18 04:41:17;;;;;;;13.23;3.10;;;;;3.00;102194.00;;;;10365514;28;20198;-75
2021/03/18 04:46:19;;;;;;;8.87;3.53;;;;;3.00;102194.00;;;;10396863;28;20269;-75
2021/03/18 04:51:21;;;;;;;8.33;3.57;;;;;3.00;102195.00;;;;10348426;28;20670;-75
2021/03/18 04:56:24;;;;;;;12.30;2.90;;;;;3.00;102177.00;;;;10396432;28;20245;-75
2021/03/18 05:01:27;;;;;;;13.13;3.60;;;;;3.00;102176.00;;;;10364188;28;20584;-75
2021/03/18 05:06:30;;;;;;;11.63;3.57;;;;;3.10;102165.00;;;;10414245;28;20203;-75
2021/03/18 05:11:32;;;;;;;9.93;3.57;;;;;3.00;102173.00;;;;10396425;28;20202;-75
2021/03/18 05:16:35;;;;;;;18.60;3.77;;;;;3.00;102176.00;;;;10396239;28;20893;-75
2021/03/18 05:21:38;;;;;;;8.73;3.67;;;;;2.90;102160.00;;;;10414068;28;20273;-75
2021/03/18 05:26:40;;;;;;;11.67;3.50;;;;;3.00;102156.00;;;;10395720;28;20242;-75
2021/03/18 05:31:43;;;;;;;14.00;3.40;;;;;2.90;102150.00;;;;10396000;28;20195;-75
2021/03/18 05:36:45;;;;;;;8.87;4.17;;;;;2.80;102151.00;;;;10379337;28;20253;-75
2021/03/18 05:41:47;;;;;;;9.33;3.03;;;;;2.60;102134.00;;;;10365875;28;20715;-75
2021/03/18 05:46:49;;;;;;;15.10;3.80;;;;;2.50;102139.00;;;;10427283;28;20209;-75
2021/03/18 05:51:51;;;;;;;10.70;3.77;;;;;2.40;102145.00;;;;10400891;28;20199;-75
2021/03/18 05:56:53;;;;;;;11.10;4.67;;;;;2.30;102139.00;;;;10361678;28;20233;-75
2021/03/18 06:01:55;;;;;;;11.10;4.03;;;;;2.40;102148.00;;;;10394985;28;20187;-75
2021/03/18 06:06:58;;;;;;;15.63;4.47;;;;;2.60;102131.00;;;;10418248;28;20242;-75
2021/03/18 06:11:59;;;;;;;9.63;4.00;;;;;2.70;102142.00;;;;10427664;28;20194;-75
2021/03/18 06:17:02;;;;;;;15.33;4.80;;;;;2.80;102132.00;;;;10387316;28;20194;-75
2021/03/18 06:22:04;;;;;;;14.27;4.17;;;;;3.00;102130.00;;;;10421008;28;20191;-75
2021/03/18 06:27:05;;;;;;;18.00;4.60;;;;;3.20;102135.00;;;;10401813;28;20304;-75
2021/03/18 06:32:14;;;;;;;9.77;3.97;;;;;3.30;102135.00;;;;10402399;28;20201;-75
2021/03/18 06:37:30;;;;;;;12.83;4.77;;;;;3.50;102128.00;;;;10401688;28;20254;-75
2021/03/18 06:42:33;;;;;;;13.27;4.03;;;;;3.50;102125.00;;;;10402663;28;20278;-75
2021/03/18 06:47:46;;;;;;;15.07;4.30;;;;;3.60;102128.00;;;;10401955;28;20191;-75
2021/03/18 06:52:48;;;;;;;15.50;3.50;;;;;3.80;102131.00;;;;10386982;28;20190;-75
2021/03/18 06:57:50;;;;;;;25.60;11.57;;;;;3.90;102117.00;;;;10380947;28;20205;-75
2021/03/18 07:02:51;;;;;;;15.17;8.00;;;;;4.10;102113.00;;;;10391976;28;20310;-75
2021/03/18 07:07:53;;;;;;;8.33;3.80;;;;;4.30;102103.00;;;;10401977;28;20264;-75
2021/03/18 07:12:54;;;;;;;9.13;3.60;;;;;4.50;102087.00;;;;10400082;28;20210;-75
2021/03/18 07:18:01;;;;;;;9.90;3.40;;;;;4.60;102094.00;;;;10399487;28;20190;-76
2021/03/18 07:23:16;;;;;;;10.77;3.57;;;;;4.80;102096.00;;;;10360582;28;20233;-75
2021/03/18 07:28:22;;;;;;;13.53;4.10;;;;;4.90;102102.00;;;;10384234;28;20205;-75
2021/03/18 07:33:24;;;;;;;12.13;3.37;;;;;5.10;102103.00;;;;10377120;28;20245;-75
2021/03/18 07:38:28;;;;;;;9.10;3.57;;;;;5.30;102090.00;;;;10365231;28;20195;-74
2021/03/18 07:43:33;;;;;;;8.30;3.37;;;;;5.50;102096.00;;;;10394358;28;20224;-75
2021/03/18 07:48:35;;;;;;;9.63;2.93;;;;;5.70;102090.00;;;;10385716;28;20609;-75
2021/03/18 07:53:37;;;;;;;11.37;2.93;;;;;6.00;102092.00;;;;10398499;28;20198;-75
2021/03/18 07:58:44;;;;;;;7.83;2.53;;;;;6.30;102065.00;;;;10367346;28;20206;-75
2021/03/18 08:03:51;;;;;;;7.57;2.00;;;;;6.60;102069.00;;;;10412551;28;20252;-75
2021/03/18 08:08:53;;;;;;;7.83;2.30;;;;;6.70;102067.00;;;;10378481;28;20222;-75
2021/03/18 08:14:05;;;;;;;9.67;2.43;;;;;6.90;102053.00;;;;10413086;28;20214;-75
2021/03/18 08:19:09;;;;;;;9.33;2.50;;;;;7.10;102050.00;;;;10380869;28;20206;-75
2021/03/18 08:24:14;;;;;;;13.63;4.93;;;;;7.50;102057.00;;;;10381081;28;20305;-75
2021/03/18 08:29:37;;;;;;;15.90;7.07;;;;;8.00;102057.00;;;;10414511;28;20664;-75
2021/03/18 08:34:53;;;;;;;30.80;10.87;;;;;8.40;102051.00;;;;10380053;28;20600;-75
2021/03/18 08:39:55;;;;;;;12.50;3.13;;;;;8.60;102049.00;;;;10360558;28;20641;-75
2021/03/18 08:44:58;;;;;;;14.13;3.13;;;;;8.60;102043.00;;;;10396643;28;20673;-75
2021/03/18 08:50:00;;;;;;;9.47;2.73;;;;;8.60;102037.00;;;;10364063;28;20199;-75
2021/03/18 08:55:06;;;;;;;7.40;3.10;;;;;8.70;102037.00;;;;10368106;28;20203;-75
2021/03/18 09:00:14;;;;;;;6.67;2.50;;;;;8.90;102038.00;;;;10397270;28;20310;-75
2021/03/18 09:05:21;;;;;;;9.67;2.13;;;;;9.00;102050.00;;;;10364586;28;20301;-75
2021/03/18 09:10:36;;;;;;;6.00;2.13;;;;;9.20;102049.00;;;;10363730;28;20195;-75
2021/03/18 09:15:41;;;;;;;7.43;2.30;;;;;9.40;102041.00;;;;10395426;28;20217;-76
2021/03/18 09:20:49;;;;;;;8.80;2.37;;;;;9.50;102059.00;;;;10379521;28;20230;-75
2021/03/18 09:26:06;;;;;;;8.70;2.30;;;;;9.50;102056.00;;;;10396421;28;20213;-75
2021/03/18 09:31:08;;;;;;;9.30;2.93;;;;;9.80;102048.00;;;;10362358;28;20233;-75
2021/03/18 09:36:17;;;;;;;9.50;2.40;;;;;9.70;102053.00;;;;10379645;28;20187;-75
2021/03/18 09:41:27;;;;;;;14.63;3.27;;;;;9.30;102054.00;;;;10382945;28;20191;-76
2021/03/18 09:46:30;;;;;;;12.90;4.43;;;;;8.90;102048.00;;;;10382492;28;20211;-76
2021/03/18 09:51:37;;;;;;;14.23;3.97;;;;;9.00;102048.00;;;;10384865;28;20198;-74
2021/03/18 09:56:42;;;;;;;11.87;4.10;;;;;9.00;102047.00;;;;10397740;28;20191;-75
2021/03/18 10:01:43;;;;;;;12.00;4.90;;;;;8.70;102049.00;;;;10391269;28;20711;-75
2021/03/18 10:06:47;;;;;;;17.03;5.07;;;;;8.40;102046.00;;;;10383000;28;20212;-75
2021/03/18 10:11:53;;;;;;;13.07;4.63;;;;;8.40;102047.00;;;;10361686;28;20278;-75
2021/03/18 10:16:55;;;;;;;17.63;5.50;;;;;8.10;102049.00;;;;10386489;28;20222;-75
2021/03/18 10:22:01;;;;;;;16.10;5.80;;;;;7.90;102044.00;;;;10357350;28;20289;-75
2021/03/18 10:27:11;;;;;;;15.60;5.33;;;;;7.90;102031.00;;;;10390892;28;20245;-75
2021/03/18 10:32:18;;;;;;;15.70;5.73;;;;;7.90;102035.00;;;;10433029;28;20665;-75
2021/03/18 10:37:37;;;;;;;19.60;6.47;;;;;8.00;102037.00;;;;10359646;28;20201;-75
2021/03/18 10:42:41;;;;;;;17.73;6.47;;;;;8.20;102021.00;;;;10388317;28;20565;-75
2021/03/18 10:47:44;;;;;;;12.40;6.37;;;;;8.50;102011.00;;;;10412498;28;20249;-75
2021/03/18 10:53:14;;;;;;;16.93;7.37;;;;;8.70;102021.00;;;;10351343;28;20195;-75
2021/03/18 10:58:21;;;;;;;25.30;9.73;;;;;8.60;102016.00;;;;10381505;28;20210;-75
2021/03/18 11:03:27;;;;;;;14.87;9.03;;;;;8.80;102017.00;;;;10386072;28;20203;-74
2021/03/18 11:08:31;;;;;;;22.43;10.33;;;;;9.30;102004.00;;;;10400707;28;20194;-75
2021/03/18 11:13:32;;;;;;;21.10;10.63;;;;;9.50;101992.00;;;;10399899;28;20214;-75
2021/03/18 11:18:37;;;;;;;19.03;10.40;;;;;9.80;101993.00;;;;10367604;28;20191;-75
2021/03/18 11:23:39;;;;;;;21.43;9.77;;;;;10.10;101988.00;;;;10397913;28;20280;-75
2021/03/18 11:28:59;;;;;;;24.60;9.93;;;;;10.10;101981.00;;;;10393931;28;20202;-75
2021/03/18 11:34:26;;;;;;;20.60;9.17;;;;;9.90;101978.00;;;;10407361;28;20190;-75
2021/03/18 11:39:27;;;;;;;22.50;9.83;;;;;9.90;101976.00;;;;10348198;28;20276;-75
2021/03/18 11:44:30;;;;;;;17.03;8.33;;;;;9.80;101971.00;;;;10379925;28;20681;-75
2021/03/18 11:49:33;;;;;;;20.20;7.60;;;;;9.60;101955.00;;;;10403053;28;20194;-75
2021/03/18 11:54:35;;;;;;;28.63;8.80;;;;;9.50;101955.00;;;;10391132;28;20270;-75
2021/03/18 11:59:36;;;;;;;28.23;9.67;;;;;9.50;101958.00;;;;10379734;28;20217;-75
2021/03/18 12:04:38;;;;;;;23.47;8.67;;;;;9.50;101946.00;;;;10363760;28;20801;-75
2021/03/18 12:09:48;;;;;;;20.43;9.73;;;;;9.40;101945.00;;;;10400054;28;20204;-75
2021/03/18 12:14:50;;;;;;;30.47;9.27;;;;;9.40;101949.00;;;;10421353;28;20213;-75
2021/03/18 12:19:51;;;;;;;26.50;9.87;;;;;9.50;101941.00;;;;10379313;28;20650;-75
2021/03/18 12:24:59;;;;;;;26.90;8.90;;;;;9.40;101934.00;;;;10396161;28;20293;-75
2021/03/18 12:30:04;;;;;;;27.93;9.90;;;;;9.20;101932.00;;;;10395606;28;20202;-75
2021/03/18 12:35:08;;;;;;;22.83;8.70;;;;;9.50;101933.00;;;;10377383;28;20183;-75
2021/03/18 12:40:10;;;;;;;22.53;9.33;;;;;9.60;101914.00;;;;10401526;28;20669;-75
2021/03/18 12:45:14;;;;;;;21.37;9.80;;;;;9.50;101906.00;;;;10390160;28;20505;-75
2021/03/18 12:50:18;;;;;;;23.33;9.33;;;;;10.10;101902.00;;;;10369814;28;20677;-75
2021/03/18 12:55:19;;;;;;;22.80;9.40;;;;;10.30;101888.00;;;;10416948;28;20186;-75
2021/03/18 13:00:28;;;;;;;21.90;10.93;;;;;10.20;101882.00;;;;10379471;28;20190;-75
2021/03/18 13:05:30;;;;;;;25.03;8.97;;;;;10.20;101870.00;;;;10397628;28;20195;-75
2021/03/18 13:10:32;;;;;;;21.60;9.70;;;;;10.20;101851.00;;;;10393421;28;20197;-75
2021/03/18 13:15:33;;;;;;;24.23;9.33;;;;;10.80;101836.00;;;;10400447;28;20233;-75
2021/03/18 13:20:35;;;;;;;18.50;8.77;;;;;10.40;101839.00;;;;10392733;28;20183;-74
2021/03/18 13:25:37;;;;;;;22.27;8.23;;;;;10.30;101827.00;;;;10374172;28;20203;-75
2021/03/18 13:30:38;;;;;;;19.13;10.93;;;;;10.20;101814.00;;;;10384221;28;20215;-75
2021/03/18 13:35:41;;;;;;;14.40;7.43;;;;;10.20;101804.00;;;;10386559;28;20217;-76
2021/03/18 13:40:48;;;;;;;16.10;8.47;;;;;11.10;101801.00;;;;10386911;28;20642;-75
2021/03/18 13:45:50;;;;;;;20.97;7.93;;;;;11.10;101799.00;;;;10390027;28;20233;-76
2021/03/18 13:50:54;;;;;;;12.47;7.37;;;;;11.50;101772.00;;;;10407853;28;20685;-76
2021/03/18 13:55:56;;;;;;;18.73;9.10;;;;;12.30;101769.00;;;;10392038;28;20195;-77
2021/03/18 14:01:00;;;;;;;13.73;6.70;;;;;13.10;101761.00;;;;10360940;28;20259;-76
2021/03/18 14:06:03;;;;;;;13.80;8.27;;;;;12.70;101753.00;;;;10368365;28;20231;-76
2021/03/18 14:11:05;;;;;;;17.60;7.83;;;;;12.00;101756.00;;;;10394092;28;20225;-76
2021/03/18 14:16:07;;;;;;;15.33;7.97;;;;;10.90;101751.00;;;;10415477;28;20609;-77
2021/03/18 14:21:09;;;;;;;17.07;8.10;;;;;10.50;101757.00;;;;10382597;28;20202;-77
2021/03/18 14:26:11;;;;;;;15.23;8.43;;;;;10.00;101754.00;;;;10397584;28;20245;-77
2021/03/18 14:31:12;;;;;;;13.33;7.90;;;;;9.40;101750.00;;;;10360524;28;20216;-77
2021/03/18 14:36:14;;;;;;;18.87;8.47;;;;;8.90;101755.00;;;;10414607;28;20191;-77
2021/03/18 14:41:15;;;;;;;14.93;9.47;;;;;8.50;101752.00;;;;10410764;28;20213;-78
2021/03/18 14:46:17;;;;;;;17.40;9.57;;;;;8.00;101749.00;;;;10370475;28;20211;-78
2021/03/18 14:51:19;;;;;;;16.37;10.00;;;;;7.90;101740.00;;;;10403502;28;20206;-77
2021/03/18 14:56:21;;;;;;;16.63;9.23;;;;;7.50;101749.00;;;;10386534;28;20188;-77
2021/03/18 15:01:43;;;;;;;14.47;8.87;;;;;7.50;101739.00;;;;10388358;28;20286;-77
2021/03/18 15:06:46;;;;;;;14.50;8.27;;;;;7.70;101735.00;;;;10397806;28;20205;-77
2021/03/18 15:11:47;;;;;;;9.23;7.80;;;;;8.00;101744.00;;;;10370497;28;20199;-77
2021/03/18 15:16:49;;;;;;;15.17;9.00;;;;;7.80;101742.00;;;;10418464;28;20210;-77
2021/03/18 15:21:50;;;;;;;19.73;10.13;;;;;7.50;101746.00;;;;10383342;28;20649;-77
2021/03/18 15:26:52;;;;;;;18.93;10.53;;;;;7.50;101729.00;;;;10407274;28;20206;-77
2021/03/18 15:31:53;;;;;;;15.30;10.80;;;;;7.60;101713.00;;;;10404861;28;20728;-76
2021/03/18 15:36:55;;;;;;;20.33;10.60;;;;;7.60;101704.00;;;;10389590;28;20198;-76
2021/03/18 15:41:56;;;;;;;15.00;9.60;;;;;7.40;101690.00;;;;10376175;28;20557;-77
2021/03/18 15:46:57;;;;;;;17.93;9.77;;;;;7.20;101686.00;;;;10390297;28;20234;-77
2021/03/18 15:51:59;;;;;;;10.67;6.60;;;;;7.10;101682.00;;;;10405547;28;20260;-76
2021/03/18 15:57:02;;;;;;;11.27;6.53;;;;;7.20;101681.00;;;;10398933;28;20195;-76
2021/03/18 16:02:04;;;;;;;9.30;6.90;;;;;7.70;101678.00;;;;10338267;28;20551;-76
2021/03/18 16:07:26;;;;;;;8.50;5.70;;;;;7.60;101670.00;;;;10380004;28;20298;-76
2021/03/18 16:12:28;;;;;;;7.80;6.20;;;;;8.00;101673.00;;;;10393938;28;20599;-76
2021/03/18 16:17:29;;;;;;;12.00;6.97;;;;;8.10;101668.00;;;;10402307;28;20241;-76
2021/03/18 16:22:31;;;;;;;12.00;6.93;;;;;8.20;101671.00;;;;10382767;28;20282;-76
2021/03/18 16:27:32;;;;;;;8.60;6.20;;;;;8.10;101659.00;;;;10395071;28;20288;-76
2021/03/18 16:32:34;;;;;;;15.47;5.70;;;;;8.10;101643.00;;;;10397869;28;20566;-76
2021/03/18 16:37:52;;;;;;;9.17;5.80;;;;;7.90;101638.00;;;;10362385;28;20202;-76
2021/03/18 16:42:53;;;;;;;7.07;4.43;;;;;7.70;101628.00;;;;10382589;28;20195;-76
2021/03/18 16:47:55;;;;;;;7.77;4.60;;;;;7.60;101624.00;;;;10413398;28;20252;-76
2021/03/18 16:52:59;;;;;;;7.17;4.27;;;;;7.70;101614.00;;;;10378338;28;20562;-76
2021/03/18 16:58:03;;;;;;;10.17;4.07;;;;;7.60;101613.00;;;;10399311;28;20193;-77
2021/03/18 17:03:07;;;;;;;5.37;4.00;;;;;7.50;101603.00;;;;10376829;28;20195;-77
2021/03/18 17:08:10;;;;;;;7.20;2.50;;;;;7.50;101604.00;;;;10397387;28;20194;-77
2021/03/18 17:13:17;;;;;;;4.47;2.33;;;;;7.20;101607.00;;;;10357104;28;20253;-77
2021/03/18 17:18:19;;;;;;;9.70;2.90;;;;;7.10;101605.00;;;;10391797;28;20209;-76
2021/03/18 17:23:21;;;;;;;5.07;2.83;;;;;7.00;101591.00;;;;10422297;28;20263;-77
2021/03/18 17:28:22;;;;;;;6.77;3.77;;;;;6.90;101594.00;;;;10421692;28;20256;-77
2021/03/18 17:33:26;;;;;;;7.60;3.20;;;;;6.80;101598.00;;;;10405091;28;20190;-77
2021/03/18 17:38:28;;;;;;;4.47;3.13;;;;;6.70;101600.00;;;;10422555;28;20185;-77
2021/03/18 17:43:31;;;;;;;4.93;2.40;;;;;6.60;101593.00;;;;10456269;28;20691;-77
2021/03/18 17:48:33;;;;;;;5.47;2.40;;;;;6.50;101589.00;;;;10421705;28;20268;-77
2021/03/18 17:53:46;;;;;;;7.37;2.80;;;;;6.40;101594.00;;;;10437729;28;20243;-77
2021/03/18 17:58:49;;;;;;;3.20;2.67;;;;;6.30;101596.00;;;;10421409;28;20194;-77
2021/03/18 18:03:50;;;;;;;7.93;3.37;;;;;6.30;101592.00;;;;10411093;28;20210;-77
2021/03/18 18:08:52;;;;;;;6.03;3.07;;;;;6.20;101595.00;;;;10446265;28;20186;-77
2021/03/18 18:13:53;;;;;;;8.67;2.97;;;;;6.20;101594.00;;;;10399738;28;20577;-77
2021/03/18 18:18:54;;;;;;;13.37;3.57;;;;;6.20;101587.00;;;;10421617;28;20187;-77
2021/03/18 18:23:56;;;;;;;7.07;2.90;;;;;6.20;101580.00;;;;10404322;28;20227;-77
2021/03/18 18:28:57;;;;;;;8.23;3.00;;;;;6.20;101578.00;;;;10403986;28;20685;-77
2021/03/18 18:33:59;;;;;;;3.80;2.50;;;;;6.10;101578.00;;;;10403758;28;20195;-77
2021/03/18 18:39:10;;;;;;;5.77;2.77;;;;;6.10;101566.00;;;;10421897;28;20187;-77
2021/03/18 18:44:13;;;;;;;6.03;3.07;;;;;6.00;101562.00;;;;10354491;28;20207;-77
2021/03/18 18:49:18;;;;;;;5.53;2.70;;;;;6.00;101558.00;;;;10421565;28;20222;-77
2021/03/18 18:54:19;;;;;;;3.60;2.73;;;;;6.00;101553.00;;;;10387433;28;20257;-77
2021/03/18 18:59:20;;;;;;;5.60;3.17;;;;;5.90;101553.00;;;;10402916;28;20199;-77
2021/03/18 19:04:21;;;;;;;7.80;3.37;;;;;5.80;101548.00;;;;10369961;28;20210;-77
2021/03/18 19:09:23;;;;;;;4.43;3.17;;;;;5.80;101545.00;;;;10370392;28;20202;-77
2021/03/18 19:14:24;;;;;;;5.03;3.57;;;;;5.80;101544.00;;;;10417208;28;20215;-77
2021/03/18 19:19:27;;;;;;;6.70;4.60;;;;;5.80;101549.00;;;;10420675;28;20194;-77
2021/03/18 19:24:30;;;;;;;5.87;3.97;;;;;5.70;101538.00;;;;10369626;28;20211;-77
2021/03/18 19:29:31;;;;;;;9.77;5.37;;;;;5.70;101523.00;;;;10401804;28;20199;-77
2021/03/18 19:34:32;;;;;;;7.93;5.70;;;;;5.70;101526.00;;;;10402184;28;20191;-77
2021/03/18 19:39:34;;;;;;;8.97;5.87;;;;;5.70;101518.00;;;;10368741;28;20195;-77
2021/03/18 19:44:35;;;;;;;10.93;6.70;;;;;5.60;101519.00;;;;10400971;28;20284;-77
2021/03/18 19:49:38;;;;;;;9.73;6.27;;;;;5.60;101512.00;;;;10385393;28;20642;-77
2021/03/18 19:54:40;;;;;;;7.50;6.00;;;;;5.60;101508.00;;;;10352986;28;20654;-77
2021/03/18 19:59:41;;;;;;;10.60;6.17;;;;;5.60;101502.00;;;;10380404;28;20600;-77
2021/03/18 20:04:43;;;;;;;10.03;6.03;;;;;5.60;101494.00;;;;10401023;28;20697;-77
2021/03/18 20:09:44;;;;;;;10.37;7.23;;;;;5.60;101495.00;;;;10400121;28;20195;-77
2021/03/18 20:14:46;;;;;;;8.33;6.67;;;;;5.60;101484.00;;;;10367819;28;20294;-77
2021/03/18 20:20:06;;;;;;;9.80;6.70;;;;;5.60;101480.00;;;;10400575;28;20206;-77
2021/03/18 20:25:10;;;;;;;9.63;7.00;;;;;5.70;101469.00;;;;10381562;28;20736;-77
2021/03/18 20:30:25;;;;;;;10.33;7.63;;;;;5.70;101463.00;;;;10365794;28;20207;-77
2021/03/18 20:35:26;;;;;;;11.67;7.40;;;;;5.70;101462.00;;;;10383148;28;20195;-77
2021/03/18 20:40:28;;;;;;;13.47;7.83;;;;;5.70;101456.00;;;;10417344;28;20187;-77
2021/03/18 20:45:30;;;;;;;10.00;7.47;;;;;5.70;101461.00;;;;10399633;28;20309;-77
2021/03/18 20:50:33;;;;;;;9.97;7.70;;;;;5.70;101462.00;;;;10398867;28;20681;-77
2021/03/18 20:55:35;;;;;;;8.07;6.73;;;;;5.70;101451.00;;;;10381923;28;20662;-77
2021/03/18 21:00:39;;;;;;;11.27;7.50;;;;;5.70;101439.00;;;;10382650;28;20245;-77
2021/03/18 21:05:43;;;;;;;10.93;6.97;;;;;5.70;101438.00;;;;10365960;28;20210;-77
2021/03/18 21:10:45;;;;;;;7.60;6.60;;;;;5.70;101428.00;;;;10398840;28;20604;-77
2021/03/18 21:15:46;;;;;;;6.13;5.47;;;;;5.70;101423.00;;;;10370138;28;20215;-77
2021/03/18 21:20:48;;;;;;;9.90;6.40;;;;;5.60;101423.00;;;;10365498;28;20535;-77
2021/03/18 21:25:50;;;;;;;9.93;5.93;;;;;5.60;101403.00;;;;10364685;28;20218;-77
2021/03/18 21:30:52;;;;;;;8.40;4.90;;;;;5.60;101396.00;;;;10348393;28;20203;-77
2021/03/18 21:35:53;;;;;;;13.33;5.70;;;;;5.50;101402.00;;;;10380009;28;20657;-77
2021/03/18 21:40:55;;;;;;;7.63;4.40;;;;;5.50;101392.00;;;;10380470;28;20249;-77
2021/03/18 21:45:57;;;;;;;8.40;4.73;;;;;5.50;101381.00;;;;10381070;28;20245;-77
2021/03/18 21:51:09;;;;;;;9.53;4.20;;;;;5.40;101385.00;;;;10414904;28;20204;-77
2021/03/18 21:56:10;;;;;;;9.03;4.47;;;;;5.40;101383.00;;;;10403651;28;20590;-77
2021/03/18 22:01:12;;;;;;;5.83;3.90;;;;;5.40;101372.00;;;;10398117;28;20206;-77
2021/03/18 22:06:21;;;;;;;9.30;4.67;;;;;5.40;101371.00;;;;10381110;28;20237;-77
2021/03/18 22:11:23;;;;;;;9.70;5.53;;;;;5.40;101364.00;;;;10379871;28;20222;-77
2021/03/18 22:16:25;;;;;;;7.67;5.60;;;;;5.40;101366.00;;;;10371309;28;20243;-77
2021/03/18 22:21:32;;;;;;;7.93;5.73;;;;;5.30;101395.00;;;;10338994;28;20200;-77
2021/03/18 22:26:41;;;;;;;10.90;5.57;;;;;5.30;101394.00;;;;10356766;28;20207;-77
2021/03/18 22:31:43;;;;;;;9.77;5.37;;;;;5.20;101398.00;;;;10355593;28;20224;-77
2021/03/18 22:36:44;;;;;;;11.17;5.20;;;;;5.10;101406.00;;;;10339524;28;20214;-77
2021/03/18 22:41:45;;;;;;;17.33;5.70;;;;;5.00;101415.00;;;;10354855;28;20242;-77
2021/03/18 22:46:47;;;;;;;13.43;4.67;;;;;5.00;101419.00;;;;10339103;28;20291;-77
2021/03/18 22:51:53;;;;;;;11.57;4.77;;;;;5.10;101426.00;;;;10374530;28;20190;-77
2021/03/18 22:56:55;;;;;;;13.40;4.50;;;;;5.20;101431.00;;;;10398453;28;20544;-77
2021/03/18 23:01:56;;;;;;;14.00;3.77;;;;;5.20;101437.00;;;;10386829;28;20241;-77
2021/03/18 23:06:58;;;;;;;9.43;3.40;;;;;5.20;101443.00;;;;10385884;28;20211;-77
2021/03/18 23:12:01;;;;;;;16.33;3.63;;;;;5.20;101442.00;;;;10385733;28;20314;-77
2021/03/18 23:22:22;;;;;;;16.33;3.90;;;;;5.10;101438.00;;;;10360842;28;20303;-77
2021/03/18 23:27:23;;;;;;;11.77;3.87;;;;;4.90;101434.00;;;;10360884;28;20339;-77
2021/03/18 23:32:25;;;;;;;11.57;3.80;;;;;4.70;101441.00;;;;10347177;28;20724;-77
2021/03/18 23:37:28;;;;;;;16.00;4.30;;;;;4.70;101445.00;;;;10384582;28;20191;-77
2021/03/18 23:42:29;;;;;;;18.23;4.60;;;;;4.50;101445.00;;;;10401382;28;20190;-77
2021/03/18 23:47:31;;;;;;;11.77;3.87;;;;;4.30;101434.00;;;;10400622;28;20242;-77
2021/03/18 23:52:39;;;;;;;14.77;3.30;;;;;4.10;101434.00;;;;10384633;28;20274;-77
2021/03/18 23:57:59;;;;;;;7.33;3.60;;;;;3.90;101426.00;;;;10416582;28;20269;-77
